sensor_id;sensor_type;location;lat;lon;timestamp;P1;durP1;ratioP1;P2;durP2;ratioP2
2434;SDS011;1228;51.022;6.764;2023-11-18T00:00:48;73.93;;;30.10;;
2434;SDS011;1228;51.022;6.764;2023-11-18T00:03:14;79.17;;;35.37;;
2434;SDS011;1228;51.022;6.764;2023-11-18T00:05:40;79.53;;;33.07;;
2434;SDS011;1228;51.022;6.764;2023-11-18T00:08:05;79.73;;;30.67;;
2434;SDS011;1228;51.022;6.764;2023-11-18T00:10:31;83.77;;;33.37;;
2434;SDS011;1228;51.022;6.764;2023-11-18T00:12:57;81.57;;;31.97;;
2434;SDS011;1228;51.022;6.764;2023-11-18T00:15:23;105.27;;;33.07;;
2434;SDS011;1228;51.022;6.764;2023-11-18T00:17:48;94.00;;;32.77;;
2434;SDS011;1228;51.022;6.764;2023-11-18T00:20:14;92.47;;;31.50;;
2434;SDS011;1228;51.022;6.764;2023-11-18T00:22:41;94.80;;;32.47;;
2434;SDS011;1228;51.022;6.764;2023-11-18T00:25:07;80.07;;;30.67;;
2434;SDS011;1228;51.022;6.764;2023-11-18T00:27:33;101.77;;;34.17;;
2434;SDS011;1228;51.022;6.764;2023-11-18T00:30:05;83.30;;;30.43;;
2434;SDS011;1228;51.022;6.764;2023-11-18T00:32:33;89.40;;;30.83;;
2434;SDS011;1228;51.022;6.764;2023-11-18T00:34:59;103.13;;;32.07;;
2434;SDS011;1228;51.022;6.764;2023-11-18T00:37:25;76.10;;;28.73;;
2434;SDS011;1228;51.022;6.764;2023-11-18T00:39:52;117.83;;;33.57;;
2434;SDS011;1228;51.022;6.764;2023-11-18T00:42:17;123.57;;;32.93;;
2434;SDS011;1228;51.022;6.764;2023-11-18T00:44:43;144.23;;;33.00;;
2434;SDS011;1228;51.022;6.764;2023-11-18T00:47:08;122.07;;;31.30;;
2434;SDS011;1228;51.022;6.764;2023-11-18T00:49:34;125.13;;;31.20;;
2434;SDS011;1228;51.022;6.764;2023-11-18T00:52:00;146.63;;;34.60;;
2434;SDS011;1228;51.022;6.764;2023-11-18T00:54:25;191.40;;;36.77;;
2434;SDS011;1228;51.022;6.764;2023-11-18T00:56:51;125.67;;;32.73;;
2434;SDS011;1228;51.022;6.764;2023-11-18T00:59:17;151.63;;;35.47;;
2434;SDS011;1228;51.022;6.764;2023-11-18T01:01:43;166.33;;;32.87;;
2434;SDS011;1228;51.022;6.764;2023-11-18T01:04:08;162.77;;;34.50;;
2434;SDS011;1228;51.022;6.764;2023-11-18T01:06:34;135.73;;;33.43;;
2434;SDS011;1228;51.022;6.764;2023-11-18T01:09:00;131.63;;;32.03;;
2434;SDS011;1228;51.022;6.764;2023-11-18T01:11:26;127.77;;;31.87;;
2434;SDS011;1228;51.022;6.764;2023-11-18T01:13:51;115.73;;;33.00;;
2434;SDS011;1228;51.022;6.764;2023-11-18T01:16:19;138.10;;;33.73;;
2434;SDS011;1228;51.022;6.764;2023-11-18T01:18:45;149.97;;;32.97;;
2434;SDS011;1228;51.022;6.764;2023-11-18T01:21:11;160.37;;;34.60;;
2434;SDS011;1228;51.022;6.764;2023-11-18T01:23:37;134.10;;;33.40;;
2434;SDS011;1228;51.022;6.764;2023-11-18T01:26:04;129.10;;;32.03;;
2434;SDS011;1228;51.022;6.764;2023-11-18T01:28:39;130.33;;;34.47;;
2434;SDS011;1228;51.022;6.764;2023-11-18T01:31:08;122.63;;;32.40;;
2434;SDS011;1228;51.022;6.764;2023-11-18T01:33:37;114.37;;;32.53;;
2434;SDS011;1228;51.022;6.764;2023-11-18T01:36:05;113.27;;;32.33;;
2434;SDS011;1228;51.022;6.764;2023-11-18T01:38:33;118.83;;;32.37;;
2434;SDS011;1228;51.022;6.764;2023-11-18T01:40:59;115.40;;;30.93;;
2434;SDS011;1228;51.022;6.764;2023-11-18T01:43:26;126.27;;;32.60;;
2434;SDS011;1228;51.022;6.764;2023-11-18T01:45:51;120.57;;;31.60;;
2434;SDS011;1228;51.022;6.764;2023-11-18T01:48:18;120.00;;;32.50;;
2434;SDS011;1228;51.022;6.764;2023-11-18T01:50:47;128.50;;;33.80;;
2434;SDS011;1228;51.022;6.764;2023-11-18T01:53:14;122.60;;;31.57;;
2434;SDS011;1228;51.022;6.764;2023-11-18T01:55:40;122.90;;;31.53;;
2434;SDS011;1228;51.022;6.764;2023-11-18T01:58:06;119.80;;;31.27;;
2434;SDS011;1228;51.022;6.764;2023-11-18T02:00:36;113.70;;;31.57;;
2434;SDS011;1228;51.022;6.764;2023-11-18T02:03:04;119.10;;;32.20;;
2434;SDS011;1228;51.022;6.764;2023-11-18T02:05:31;120.47;;;31.60;;
2434;SDS011;1228;51.022;6.764;2023-11-18T02:08:00;127.33;;;32.70;;
2434;SDS011;1228;51.022;6.764;2023-11-18T02:10:32;129.63;;;32.07;;
2434;SDS011;1228;51.022;6.764;2023-11-18T02:13:18;117.77;;;31.73;;
2434;SDS011;1228;51.022;6.764;2023-11-18T02:15:52;122.20;;;33.13;;
2434;SDS011;1228;51.022;6.764;2023-11-18T02:18:24;127.23;;;32.57;;
2434;SDS011;1228;51.022;6.764;2023-11-18T02:20:54;129.03;;;31.27;;
2434;SDS011;1228;51.022;6.764;2023-11-18T02:23:24;118.33;;;33.40;;
2434;SDS011;1228;51.022;6.764;2023-11-18T02:25:51;128.60;;;33.73;;
2434;SDS011;1228;51.022;6.764;2023-11-18T02:28:17;137.27;;;33.93;;
2434;SDS011;1228;51.022;6.764;2023-11-18T02:30:44;125.03;;;34.60;;
2434;SDS011;1228;51.022;6.764;2023-11-18T02:33:44;109.73;;;32.60;;
2434;SDS011;1228;51.022;6.764;2023-11-18T02:36:10;124.07;;;33.47;;
2434;SDS011;1228;51.022;6.764;2023-11-18T02:38:49;133.93;;;34.63;;
2434;SDS011;1228;51.022;6.764;2023-11-18T02:41:15;116.77;;;32.53;;
2434;SDS011;1228;51.022;6.764;2023-11-18T02:43:43;110.53;;;35.00;;
2434;SDS011;1228;51.022;6.764;2023-11-18T02:46:10;125.50;;;34.17;;
2434;SDS011;1228;51.022;6.764;2023-11-18T02:48:40;117.27;;;33.87;;
2434;SDS011;1228;51.022;6.764;2023-11-18T02:51:06;117.90;;;34.07;;
2434;SDS011;1228;51.022;6.764;2023-11-18T02:53:33;116.23;;;33.23;;
2434;SDS011;1228;51.022;6.764;2023-11-18T02:55:59;120.97;;;34.10;;
2434;SDS011;1228;51.022;6.764;2023-11-18T02:58:29;110.43;;;34.53;;
2434;SDS011;1228;51.022;6.764;2023-11-18T03:00:55;116.73;;;34.07;;
2434;SDS011;1228;51.022;6.764;2023-11-18T03:03:20;133.23;;;33.77;;
2434;SDS011;1228;51.022;6.764;2023-11-18T03:05:46;111.97;;;33.23;;
2434;SDS011;1228;51.022;6.764;2023-11-18T03:08:14;121.33;;;34.53;;
2434;SDS011;1228;51.022;6.764;2023-11-18T03:10:40;102.60;;;32.63;;
2434;SDS011;1228;51.022;6.764;2023-11-18T03:13:09;123.47;;;32.87;;
2434;SDS011;1228;51.022;6.764;2023-11-18T03:15:37;115.60;;;33.77;;
2434;SDS011;1228;51.022;6.764;2023-11-18T03:18:02;107.70;;;33.33;;
2434;SDS011;1228;51.022;6.764;2023-11-18T03:20:30;111.23;;;31.90;;
2434;SDS011;1228;51.022;6.764;2023-11-18T03:22:59;119.27;;;32.53;;
2434;SDS011;1228;51.022;6.764;2023-11-18T03:25:28;103.10;;;33.93;;
2434;SDS011;1228;51.022;6.764;2023-11-18T03:27:54;106.07;;;33.13;;
2434;SDS011;1228;51.022;6.764;2023-11-18T03:30:19;102.67;;;31.60;;
2434;SDS011;1228;51.022;6.764;2023-11-18T03:32:46;105.03;;;32.60;;
2434;SDS011;1228;51.022;6.764;2023-11-18T03:35:11;103.93;;;31.90;;
2434;SDS011;1228;51.022;6.764;2023-11-18T03:37:40;105.90;;;33.10;;
2434;SDS011;1228;51.022;6.764;2023-11-18T03:40:07;102.60;;;32.17;;
2434;SDS011;1228;51.022;6.764;2023-11-18T03:42:36;100.10;;;30.77;;
2434;SDS011;1228;51.022;6.764;2023-11-18T03:45:02;109.63;;;33.63;;
2434;SDS011;1228;51.022;6.764;2023-11-18T03:47:29;109.50;;;32.77;;
2434;SDS011;1228;51.022;6.764;2023-11-18T03:49:55;98.40;;;31.70;;
2434;SDS011;1228;51.022;6.764;2023-11-18T03:52:21;109.47;;;32.93;;
2434;SDS011;1228;51.022;6.764;2023-11-18T03:54:48;103.40;;;31.60;;
2434;SDS011;1228;51.022;6.764;2023-11-18T03:57:13;100.00;;;32.63;;
2434;SDS011;1228;51.022;6.764;2023-11-18T03:59:39;99.60;;;31.17;;
2434;SDS011;1228;51.022;6.764;2023-11-18T04:02:06;88.00;;;30.30;;
2434;SDS011;1228;51.022;6.764;2023-11-18T04:04:32;92.23;;;32.30;;
2434;SDS011;1228;51.022;6.764;2023-11-18T04:06:58;104.17;;;32.17;;
2434;SDS011;1228;51.022;6.764;2023-11-18T04:09:25;113.90;;;32.53;;
2434;SDS011;1228;51.022;6.764;2023-11-18T04:11:52;103.27;;;33.60;;
2434;SDS011;1228;51.022;6.764;2023-11-18T04:14:17;95.80;;;34.07;;
2434;SDS011;1228;51.022;6.764;2023-11-18T04:16:44;92.73;;;31.10;;
2434;SDS011;1228;51.022;6.764;2023-11-18T04:19:11;108.07;;;33.23;;
2434;SDS011;1228;51.022;6.764;2023-11-18T04:21:37;94.10;;;31.50;;
2434;SDS011;1228;51.022;6.764;2023-11-18T04:24:03;99.80;;;30.60;;
2434;SDS011;1228;51.022;6.764;2023-11-18T04:26:30;87.73;;;31.53;;
2434;SDS011;1228;51.022;6.764;2023-11-18T04:28:57;99.47;;;31.67;;
2434;SDS011;1228;51.022;6.764;2023-11-18T04:31:23;93.90;;;30.40;;
2434;SDS011;1228;51.022;6.764;2023-11-18T04:33:49;95.97;;;31.20;;
2434;SDS011;1228;51.022;6.764;2023-11-18T04:36:15;100.30;;;31.87;;
2434;SDS011;1228;51.022;6.764;2023-11-18T04:38:41;101.33;;;31.90;;
2434;SDS011;1228;51.022;6.764;2023-11-18T04:41:07;101.30;;;32.00;;
2434;SDS011;1228;51.022;6.764;2023-11-18T04:43:33;96.77;;;31.03;;
2434;SDS011;1228;51.022;6.764;2023-11-18T04:45:59;97.10;;;33.27;;
2434;SDS011;1228;51.022;6.764;2023-11-18T04:48:24;94.70;;;32.40;;
2434;SDS011;1228;51.022;6.764;2023-11-18T04:50:50;94.97;;;31.30;;
2434;SDS011;1228;51.022;6.764;2023-11-18T04:53:16;103.70;;;31.63;;
2434;SDS011;1228;51.022;6.764;2023-11-18T04:55:42;106.07;;;33.27;;
2434;SDS011;1228;51.022;6.764;2023-11-18T04:58:07;95.57;;;31.03;;
2434;SDS011;1228;51.022;6.764;2023-11-18T05:00:37;93.33;;;30.30;;
2434;SDS011;1228;51.022;6.764;2023-11-18T05:03:04;89.73;;;30.80;;
2434;SDS011;1228;51.022;6.764;2023-11-18T05:05:30;93.97;;;28.63;;
2434;SDS011;1228;51.022;6.764;2023-11-18T05:07:56;102.10;;;31.50;;
2434;SDS011;1228;51.022;6.764;2023-11-18T05:10:22;100.63;;;31.37;;
2434;SDS011;1228;51.022;6.764;2023-11-18T05:12:48;87.57;;;31.97;;
2434;SDS011;1228;51.022;6.764;2023-11-18T05:15:20;102.30;;;31.50;;
2434;SDS011;1228;51.022;6.764;2023-11-18T05:17:49;103.07;;;31.50;;
2434;SDS011;1228;51.022;6.764;2023-11-18T05:20:16;107.83;;;32.93;;
2434;SDS011;1228;51.022;6.764;2023-11-18T05:22:42;98.50;;;30.43;;
2434;SDS011;1228;51.022;6.764;2023-11-18T05:25:08;105.80;;;31.37;;
2434;SDS011;1228;51.022;6.764;2023-11-18T05:27:34;101.70;;;31.87;;
2434;SDS011;1228;51.022;6.764;2023-11-18T05:30:00;93.53;;;30.37;;
2434;SDS011;1228;51.022;6.764;2023-11-18T05:32:27;86.10;;;29.97;;
2434;SDS011;1228;51.022;6.764;2023-11-18T05:34:53;109.37;;;31.87;;
2434;SDS011;1228;51.022;6.764;2023-11-18T05:37:22;102.17;;;31.47;;
2434;SDS011;1228;51.022;6.764;2023-11-18T05:39:48;103.97;;;32.10;;
2434;SDS011;1228;51.022;6.764;2023-11-18T05:42:18;95.70;;;31.23;;
2434;SDS011;1228;51.022;6.764;2023-11-18T05:44:44;104.40;;;31.97;;
2434;SDS011;1228;51.022;6.764;2023-11-18T05:47:10;96.13;;;30.47;;
2434;SDS011;1228;51.022;6.764;2023-11-18T05:49:38;101.67;;;32.83;;
2434;SDS011;1228;51.022;6.764;2023-11-18T05:52:04;102.20;;;31.57;;
2434;SDS011;1228;51.022;6.764;2023-11-18T05:54:30;96.50;;;30.63;;
2434;SDS011;1228;51.022;6.764;2023-11-18T05:56:56;97.10;;;31.63;;
2434;SDS011;1228;51.022;6.764;2023-11-18T05:59:24;97.23;;;32.23;;
2434;SDS011;1228;51.022;6.764;2023-11-18T06:01:51;107.47;;;32.43;;
2434;SDS011;1228;51.022;6.764;2023-11-18T06:04:17;103.63;;;31.03;;
2434;SDS011;1228;51.022;6.764;2023-11-18T06:06:43;100.87;;;31.87;;
2434;SDS011;1228;51.022;6.764;2023-11-18T06:09:08;104.60;;;31.17;;
2434;SDS011;1228;51.022;6.764;2023-11-18T06:11:45;95.17;;;32.67;;
2434;SDS011;1228;51.022;6.764;2023-11-18T06:14:12;89.27;;;31.33;;
2434;SDS011;1228;51.022;6.764;2023-11-18T06:16:38;96.60;;;31.33;;
2434;SDS011;1228;51.022;6.764;2023-11-18T06:19:08;97.60;;;29.73;;
2434;SDS011;1228;51.022;6.764;2023-11-18T06:21:34;92.73;;;30.70;;
2434;SDS011;1228;51.022;6.764;2023-11-18T06:24:02;94.07;;;32.17;;
2434;SDS011;1228;51.022;6.764;2023-11-18T06:26:30;83.50;;;29.70;;
2434;SDS011;1228;51.022;6.764;2023-11-18T06:28:56;92.83;;;28.83;;
2434;SDS011;1228;51.022;6.764;2023-11-18T06:31:22;81.87;;;30.17;;
2434;SDS011;1228;51.022;6.764;2023-11-18T06:33:49;95.27;;;29.10;;
2434;SDS011;1228;51.022;6.764;2023-11-18T06:38:43;76.03;;;31.17;;
2434;SDS011;1228;51.022;6.764;2023-11-18T06:41:10;83.83;;;28.80;;
2434;SDS011;1228;51.022;6.764;2023-11-18T06:43:38;86.73;;;28.83;;
2434;SDS011;1228;51.022;6.764;2023-11-18T06:46:35;85.03;;;29.33;;
2434;SDS011;1228;51.022;6.764;2023-11-18T06:49:04;80.80;;;29.77;;
2434;SDS011;1228;51.022;6.764;2023-11-18T06:51:33;74.17;;;29.00;;
2434;SDS011;1228;51.022;6.764;2023-11-18T06:54:00;76.47;;;29.13;;
2434;SDS011;1228;51.022;6.764;2023-11-18T06:56:33;82.53;;;29.13;;
2434;SDS011;1228;51.022;6.764;2023-11-18T06:59:01;87.83;;;28.27;;
2434;SDS011;1228;51.022;6.764;2023-11-18T07:01:27;72.60;;;27.73;;
2434;SDS011;1228;51.022;6.764;2023-11-18T07:03:55;74.07;;;28.23;;
2434;SDS011;1228;51.022;6.764;2023-11-18T07:06:21;87.10;;;28.00;;
2434;SDS011;1228;51.022;6.764;2023-11-18T07:08:50;72.60;;;29.00;;
2434;SDS011;1228;51.022;6.764;2023-11-18T07:11:16;76.63;;;27.43;;
2434;SDS011;1228;51.022;6.764;2023-11-18T07:13:42;66.33;;;25.03;;
2434;SDS011;1228;51.022;6.764;2023-11-18T07:16:09;65.63;;;27.47;;
2434;SDS011;1228;51.022;6.764;2023-11-18T07:18:35;70.87;;;26.20;;
2434;SDS011;1228;51.022;6.764;2023-11-18T07:21:02;71.13;;;26.13;;
2434;SDS011;1228;51.022;6.764;2023-11-18T07:23:30;69.93;;;27.03;;
2434;SDS011;1228;51.022;6.764;2023-11-18T07:25:56;57.10;;;26.03;;
2434;SDS011;1228;51.022;6.764;2023-11-18T07:28:22;67.03;;;26.37;;
2434;SDS011;1228;51.022;6.764;2023-11-18T07:30:48;66.77;;;24.80;;
2434;SDS011;1228;51.022;6.764;2023-11-18T07:33:15;63.77;;;26.60;;
2434;SDS011;1228;51.022;6.764;2023-11-18T07:35:41;57.67;;;25.53;;
2434;SDS011;1228;51.022;6.764;2023-11-18T07:38:07;63.67;;;24.60;;
2434;SDS011;1228;51.022;6.764;2023-11-18T07:40:36;67.00;;;26.97;;
2434;SDS011;1228;51.022;6.764;2023-11-18T07:43:03;65.20;;;26.50;;
2434;SDS011;1228;51.022;6.764;2023-11-18T07:45:34;59.00;;;26.67;;
2434;SDS011;1228;51.022;6.764;2023-11-18T07:48:04;55.20;;;25.33;;
2434;SDS011;1228;51.022;6.764;2023-11-18T07:50:34;58.77;;;25.83;;
2434;SDS011;1228;51.022;6.764;2023-11-18T07:53:00;66.97;;;25.40;;
2434;SDS011;1228;51.022;6.764;2023-11-18T07:55:26;70.03;;;28.27;;
2434;SDS011;1228;51.022;6.764;2023-11-18T07:57:53;59.87;;;25.93;;
2434;SDS011;1228;51.022;6.764;2023-11-18T08:00:19;61.77;;;27.33;;
2434;SDS011;1228;51.022;6.764;2023-11-18T08:02:44;70.60;;;27.23;;
2434;SDS011;1228;51.022;6.764;2023-11-18T08:05:10;64.60;;;27.40;;
2434;SDS011;1228;51.022;6.764;2023-11-18T08:07:40;67.03;;;27.60;;
2434;SDS011;1228;51.022;6.764;2023-11-18T08:10:06;57.53;;;25.00;;
2434;SDS011;1228;51.022;6.764;2023-11-18T08:12:37;56.97;;;27.07;;
2434;SDS011;1228;51.022;6.764;2023-11-18T08:15:04;62.33;;;26.53;;
2434;SDS011;1228;51.022;6.764;2023-11-18T08:17:34;60.37;;;25.60;;
2434;SDS011;1228;51.022;6.764;2023-11-18T08:19:59;64.47;;;25.43;;
2434;SDS011;1228;51.022;6.764;2023-11-18T08:22:25;56.80;;;25.73;;
2434;SDS011;1228;51.022;6.764;2023-11-18T08:24:51;56.97;;;25.37;;
2434;SDS011;1228;51.022;6.764;2023-11-18T08:27:16;56.70;;;25.97;;
2434;SDS011;1228;51.022;6.764;2023-11-18T08:29:42;48.60;;;23.90;;
2434;SDS011;1228;51.022;6.764;2023-11-18T08:32:08;55.27;;;25.80;;
2434;SDS011;1228;51.022;6.764;2023-11-18T08:34:37;58.77;;;24.73;;
2434;SDS011;1228;51.022;6.764;2023-11-18T08:37:03;51.73;;;23.73;;
2434;SDS011;1228;51.022;6.764;2023-11-18T08:39:29;57.83;;;22.93;;
2434;SDS011;1228;51.022;6.764;2023-11-18T08:41:55;53.93;;;24.70;;
2434;SDS011;1228;51.022;6.764;2023-11-18T08:44:21;49.10;;;24.17;;
2434;SDS011;1228;51.022;6.764;2023-11-18T08:46:47;48.17;;;23.60;;
2434;SDS011;1228;51.022;6.764;2023-11-18T08:49:13;48.70;;;22.63;;
2434;SDS011;1228;51.022;6.764;2023-11-18T08:51:46;43.13;;;21.97;;
2434;SDS011;1228;51.022;6.764;2023-11-18T08:54:21;47.53;;;22.87;;
2434;SDS011;1228;51.022;6.764;2023-11-18T08:56:50;48.07;;;22.50;;
2434;SDS011;1228;51.022;6.764;2023-11-18T08:59:19;47.53;;;22.27;;
2434;SDS011;1228;51.022;6.764;2023-11-18T09:01:53;43.03;;;22.27;;
2434;SDS011;1228;51.022;6.764;2023-11-18T09:04:26;48.97;;;21.73;;
2434;SDS011;1228;51.022;6.764;2023-11-18T09:06:53;40.63;;;21.17;;
2434;SDS011;1228;51.022;6.764;2023-11-18T09:09:25;49.23;;;23.20;;
2434;SDS011;1228;51.022;6.764;2023-11-18T09:11:57;52.20;;;21.67;;
2434;SDS011;1228;51.022;6.764;2023-11-18T09:14:26;44.53;;;22.23;;
2434;SDS011;1228;51.022;6.764;2023-11-18T09:16:52;44.53;;;22.17;;
2434;SDS011;1228;51.022;6.764;2023-11-18T09:19:20;44.77;;;22.27;;
2434;SDS011;1228;51.022;6.764;2023-11-18T09:21:46;42.37;;;21.03;;
2434;SDS011;1228;51.022;6.764;2023-11-18T09:24:12;42.30;;;22.33;;
2434;SDS011;1228;51.022;6.764;2023-11-18T09:26:39;49.90;;;23.43;;
2434;SDS011;1228;51.022;6.764;2023-11-18T09:29:06;44.13;;;22.90;;
2434;SDS011;1228;51.022;6.764;2023-11-18T09:31:34;38.60;;;21.60;;
2434;SDS011;1228;51.022;6.764;2023-11-18T09:34:01;45.97;;;21.73;;
2434;SDS011;1228;51.022;6.764;2023-11-18T09:36:31;43.17;;;21.80;;
2434;SDS011;1228;51.022;6.764;2023-11-18T09:38:58;45.03;;;21.13;;
2434;SDS011;1228;51.022;6.764;2023-11-18T09:41:24;43.03;;;21.20;;
2434;SDS011;1228;51.022;6.764;2023-11-18T09:43:52;44.73;;;20.80;;
2434;SDS011;1228;51.022;6.764;2023-11-18T09:46:23;45.30;;;21.00;;
2434;SDS011;1228;51.022;6.764;2023-11-18T09:48:50;40.13;;;21.30;;
2434;SDS011;1228;51.022;6.764;2023-11-18T09:51:28;39.43;;;20.63;;
2434;SDS011;1228;51.022;6.764;2023-11-18T09:54:01;36.50;;;19.20;;
2434;SDS011;1228;51.022;6.764;2023-11-18T09:59:30;38.83;;;21.33;;
2434;SDS011;1228;51.022;6.764;2023-11-18T10:02:02;38.63;;;20.03;;
2434;SDS011;1228;51.022;6.764;2023-11-18T10:04:35;39.77;;;19.93;;
2434;SDS011;1228;51.022;6.764;2023-11-18T10:07:04;37.27;;;19.67;;
2434;SDS011;1228;51.022;6.764;2023-11-18T10:09:35;35.63;;;19.27;;
2434;SDS011;1228;51.022;6.764;2023-11-18T10:12:04;33.60;;;20.13;;
2434;SDS011;1228;51.022;6.764;2023-11-18T10:14:33;34.33;;;21.00;;
2434;SDS011;1228;51.022;6.764;2023-11-18T10:17:06;33.37;;;19.30;;
2434;SDS011;1228;51.022;6.764;2023-11-18T10:22:21;37.33;;;19.70;;
2434;SDS011;1228;51.022;6.764;2023-11-18T10:24:51;38.83;;;19.87;;
2434;SDS011;1228;51.022;6.764;2023-11-18T10:27:23;38.80;;;19.70;;
2434;SDS011;1228;51.022;6.764;2023-11-18T10:29:56;35.60;;;18.73;;
2434;SDS011;1228;51.022;6.764;2023-11-18T10:32:21;34.00;;;19.57;;
2434;SDS011;1228;51.022;6.764;2023-11-18T10:34:52;37.27;;;19.37;;
2434;SDS011;1228;51.022;6.764;2023-11-18T10:37:22;31.50;;;18.00;;
2434;SDS011;1228;51.022;6.764;2023-11-18T10:39:48;30.87;;;19.67;;
2434;SDS011;1228;51.022;6.764;2023-11-18T10:42:17;30.63;;;18.43;;
2434;SDS011;1228;51.022;6.764;2023-11-18T10:47:23;39.40;;;18.07;;
2434;SDS011;1228;51.022;6.764;2023-11-18T10:49:55;34.43;;;19.40;;
2434;SDS011;1228;51.022;6.764;2023-11-18T10:52:22;32.93;;;18.47;;
2434;SDS011;1228;51.022;6.764;2023-11-18T10:54:53;32.83;;;18.00;;
2434;SDS011;1228;51.022;6.764;2023-11-18T10:57:20;27.87;;;17.53;;
2434;SDS011;1228;51.022;6.764;2023-11-18T10:59:59;25.13;;;16.10;;
2434;SDS011;1228;51.022;6.764;2023-11-18T11:02:32;30.77;;;18.37;;
2434;SDS011;1228;51.022;6.764;2023-11-18T11:05:03;28.73;;;17.30;;
2434;SDS011;1228;51.022;6.764;2023-11-18T11:07:29;24.27;;;17.53;;
2434;SDS011;1228;51.022;6.764;2023-11-18T11:09:57;29.27;;;16.50;;
2434;SDS011;1228;51.022;6.764;2023-11-18T11:12:25;25.97;;;16.73;;
2434;SDS011;1228;51.022;6.764;2023-11-18T11:17:55;26.90;;;16.40;;
2434;SDS011;1228;51.022;6.764;2023-11-18T11:20:34;27.03;;;15.77;;
2434;SDS011;1228;51.022;6.764;2023-11-18T11:23:18;23.63;;;16.50;;
2434;SDS011;1228;51.022;6.764;2023-11-18T11:26:00;29.83;;;17.30;;
2434;SDS011;1228;51.022;6.764;2023-11-18T11:28:43;26.67;;;16.50;;
2434;SDS011;1228;51.022;6.764;2023-11-18T11:31:17;29.13;;;18.23;;
2434;SDS011;1228;51.022;6.764;2023-11-18T11:34:03;28.30;;;17.07;;
2434;SDS011;1228;51.022;6.764;2023-11-18T11:36:42;25.87;;;15.87;;
2434;SDS011;1228;51.022;6.764;2023-11-18T11:39:11;25.23;;;17.03;;
2434;SDS011;1228;51.022;6.764;2023-11-18T11:41:44;21.43;;;15.03;;
2434;SDS011;1228;51.022;6.764;2023-11-18T11:44:13;22.87;;;16.60;;
2434;SDS011;1228;51.022;6.764;2023-11-18T11:46:39;24.03;;;15.27;;
2434;SDS011;1228;51.022;6.764;2023-11-18T11:49:07;26.60;;;15.80;;
2434;SDS011;1228;51.022;6.764;2023-11-18T11:51:48;28.83;;;16.80;;
2434;SDS011;1228;51.022;6.764;2023-11-18T11:54:21;28.57;;;16.23;;
2434;SDS011;1228;51.022;6.764;2023-11-18T11:56:55;22.47;;;15.60;;
2434;SDS011;1228;51.022;6.764;2023-11-18T12:02:14;27.03;;;16.23;;
2434;SDS011;1228;51.022;6.764;2023-11-18T12:04:50;25.00;;;16.07;;
2434;SDS011;1228;51.022;6.764;2023-11-18T12:07:19;26.07;;;16.57;;
2434;SDS011;1228;51.022;6.764;2023-11-18T12:09:46;32.63;;;16.73;;
2434;SDS011;1228;51.022;6.764;2023-11-18T12:12:18;19.90;;;13.83;;
2434;SDS011;1228;51.022;6.764;2023-11-18T12:14:58;20.23;;;14.40;;
2434;SDS011;1228;51.022;6.764;2023-11-18T12:23:19;21.37;;;13.30;;
2434;SDS011;1228;51.022;6.764;2023-11-18T12:25:48;19.37;;;13.17;;
2434;SDS011;1228;51.022;6.764;2023-11-18T12:28:19;20.70;;;15.03;;
2434;SDS011;1228;51.022;6.764;2023-11-18T12:30:59;21.23;;;13.60;;
2434;SDS011;1228;51.022;6.764;2023-11-18T12:41:43;19.37;;;13.47;;
2434;SDS011;1228;51.022;6.764;2023-11-18T12:44:46;17.87;;;12.77;;
2434;SDS011;1228;51.022;6.764;2023-11-18T12:47:17;19.07;;;14.00;;
2434;SDS011;1228;51.022;6.764;2023-11-18T12:49:53;14.27;;;12.30;;
2434;SDS011;1228;51.022;6.764;2023-11-18T12:52:22;19.30;;;12.37;;
2434;SDS011;1228;51.022;6.764;2023-11-18T12:54:48;17.03;;;10.87;;
2434;SDS011;1228;51.022;6.764;2023-11-18T12:57:19;14.70;;;11.17;;
2434;SDS011;1228;51.022;6.764;2023-11-18T12:59:47;17.87;;;10.43;;
2434;SDS011;1228;51.022;6.764;2023-11-18T13:02:15;13.97;;;9.60;;
2434;SDS011;1228;51.022;6.764;2023-11-18T13:04:47;12.07;;;8.63;;
2434;SDS011;1228;51.022;6.764;2023-11-18T13:07:15;12.93;;;9.97;;
2434;SDS011;1228;51.022;6.764;2023-11-18T13:09:42;12.70;;;11.30;;
2434;SDS011;1228;51.022;6.764;2023-11-18T13:12:10;18.63;;;10.63;;
2434;SDS011;1228;51.022;6.764;2023-11-18T13:14:40;14.27;;;11.50;;
2434;SDS011;1228;51.022;6.764;2023-11-18T13:17:10;12.13;;;9.30;;
2434;SDS011;1228;51.022;6.764;2023-11-18T13:19:38;21.00;;;10.30;;
2434;SDS011;1228;51.022;6.764;2023-11-18T13:22:05;16.73;;;10.30;;
2434;SDS011;1228;51.022;6.764;2023-11-18T13:24:39;13.80;;;10.33;;
2434;SDS011;1228;51.022;6.764;2023-11-18T13:27:05;11.93;;;9.63;;
2434;SDS011;1228;51.022;6.764;2023-11-18T13:29:32;18.00;;;10.00;;
2434;SDS011;1228;51.022;6.764;2023-11-18T13:32:00;11.43;;;9.77;;
2434;SDS011;1228;51.022;6.764;2023-11-18T13:34:29;10.27;;;9.20;;
2434;SDS011;1228;51.022;6.764;2023-11-18T13:37:07;10.17;;;9.17;;
2434;SDS011;1228;51.022;6.764;2023-11-18T13:39:33;12.63;;;9.53;;
2434;SDS011;1228;51.022;6.764;2023-11-18T13:42:17;10.63;;;8.70;;
2434;SDS011;1228;51.022;6.764;2023-11-18T13:44:47;11.23;;;9.17;;
2434;SDS011;1228;51.022;6.764;2023-11-18T13:47:16;15.80;;;9.10;;
2434;SDS011;1228;51.022;6.764;2023-11-18T13:49:43;14.30;;;8.97;;
2434;SDS011;1228;51.022;6.764;2023-11-18T13:52:09;9.33;;;8.07;;
2434;SDS011;1228;51.022;6.764;2023-11-18T13:54:40;9.33;;;8.37;;
2434;SDS011;1228;51.022;6.764;2023-11-18T13:57:07;13.77;;;7.77;;
2434;SDS011;1228;51.022;6.764;2023-11-18T13:59:34;9.10;;;7.70;;
2434;SDS011;1228;51.022;6.764;2023-11-18T14:02:00;9.30;;;8.00;;
2434;SDS011;1228;51.022;6.764;2023-11-18T14:04:29;8.90;;;7.97;;
2434;SDS011;1228;51.022;6.764;2023-11-18T14:06:59;11.37;;;8.53;;
2434;SDS011;1228;51.022;6.764;2023-11-18T14:09:30;9.17;;;8.27;;
2434;SDS011;1228;51.022;6.764;2023-11-18T14:11:58;11.13;;;8.70;;
2434;SDS011;1228;51.022;6.764;2023-11-18T14:14:24;10.87;;;8.70;;
2434;SDS011;1228;51.022;6.764;2023-11-18T14:16:52;11.70;;;9.07;;
2434;SDS011;1228;51.022;6.764;2023-11-18T14:19:22;12.70;;;9.07;;
2434;SDS011;1228;51.022;6.764;2023-11-18T14:21:50;10.53;;;9.37;;
2434;SDS011;1228;51.022;6.764;2023-11-18T14:24:18;9.87;;;8.87;;
2434;SDS011;1228;51.022;6.764;2023-11-18T14:26:44;12.77;;;9.47;;
2434;SDS011;1228;51.022;6.764;2023-11-18T14:29:10;10.20;;;8.77;;
2434;SDS011;1228;51.022;6.764;2023-11-18T14:31:39;8.67;;;7.83;;
2434;SDS011;1228;51.022;6.764;2023-11-18T14:34:04;9.73;;;8.60;;
2434;SDS011;1228;51.022;6.764;2023-11-18T14:36:30;12.57;;;8.20;;
2434;SDS011;1228;51.022;6.764;2023-11-18T14:38:56;10.67;;;8.63;;
2434;SDS011;1228;51.022;6.764;2023-11-18T14:41:25;14.80;;;9.33;;
2434;SDS011;1228;51.022;6.764;2023-11-18T14:43:54;12.73;;;8.90;;
2434;SDS011;1228;51.022;6.764;2023-11-18T14:46:19;12.47;;;9.03;;
2434;SDS011;1228;51.022;6.764;2023-11-18T14:48:45;16.43;;;9.47;;
2434;SDS011;1228;51.022;6.764;2023-11-18T14:51:11;12.43;;;8.90;;
2434;SDS011;1228;51.022;6.764;2023-11-18T14:53:37;11.10;;;9.30;;
2434;SDS011;1228;51.022;6.764;2023-11-18T14:56:03;11.50;;;9.20;;
2434;SDS011;1228;51.022;6.764;2023-11-18T14:58:33;13.60;;;8.87;;
2434;SDS011;1228;51.022;6.764;2023-11-18T15:01:00;9.60;;;8.70;;
2434;SDS011;1228;51.022;6.764;2023-11-18T15:03:26;12.27;;;8.47;;
2434;SDS011;1228;51.022;6.764;2023-11-18T15:05:52;16.70;;;9.90;;
2434;SDS011;1228;51.022;6.764;2023-11-18T15:08:18;15.87;;;8.90;;
2434;SDS011;1228;51.022;6.764;2023-11-18T15:10:44;11.80;;;8.53;;
2434;SDS011;1228;51.022;6.764;2023-11-18T15:13:10;11.37;;;9.27;;
2434;SDS011;1228;51.022;6.764;2023-11-18T15:15:42;10.40;;;8.87;;
2434;SDS011;1228;51.022;6.764;2023-11-18T15:18:12;15.53;;;9.20;;
2434;SDS011;1228;51.022;6.764;2023-11-18T15:20:45;10.43;;;9.13;;
2434;SDS011;1228;51.022;6.764;2023-11-18T15:23:12;12.40;;;8.57;;